Historique des mesures à Cassis (13260), France
Quotidien Résumé Juin 9, 2018 Unités:  Métrique    US   Métrique/US
« Précédent (Jour)
Suivant (Jour) »
Quotidien Hebdomadaire Mensuel Annuel Période au choix
  Maximum: Minimum: Moyenne:
Température: TemperatureC °C 17.7 °C 22 °C
Point de rosée: DewpointC °C 14.8 °C 17.2 °C
Humidité: Humidity % 65 % 71 %
Vitesse du vent: 0 km/h 0 km/h 2.1 km/h
Rafales: 0 km/h - -
Vent:- - SSE
Pression: PressurehPa hPa 1009.6 hPa -
Précipitations: 0.0 mm    
Historical Graphs
 
 
Mesures pour : Juin 9, 2018
Heure Temperature Point de rosée Pression Vent Vitesse du vent Rafales Humidité Pluie (par heure) Conditions
TemperatureC °C DewpointC °C PressurehPa hPa Calm     Humidity % HourlyPrecipMM mm SoftwareType W/m2
00:10 19.4 °C 15.9 °C 1010.9 hPa Calm   1.8 km/h 80 % 0.0 mm open2300-1.11 W/m2
01:10 19.0 °C 15.7 °C 1010.7 hPa North 4.2 km/h 4.2 km/h 81 % 0.0 mm open2300-1.11 W/m2
02:10 18.9 °C 15.8 °C 1010.6 hPa Calm   4.2 km/h 82 % 0.0 mm open2300-1.11 W/m2
03:10 18.6 °C 15.4 °C 1010.2 hPa Calm     82 % 0.0 mm open2300-1.11 W/m2
04:10 18.1 °C 15.2 °C 1009.6 hPa Calm     83 % 0.0 mm open2300-1.11 W/m2
05:10 17.7 °C 14.8 °C 1009.7 hPa Calm   3.4 km/h 83 % 0.0 mm open2300-1.11 W/m2
08:10 20.8 °C 17.2 °C 1010.2 hPa Calm     80 % 0.0 mm open2300-1.11 W/m2
09:10 20.9 °C 17.1 °C 1010.4 hPa Calm   8.9 km/h 79 % 0.0 mm open2300-1.11 W/m2
10:10 22.9 °C 19.3 °C 1010.8 hPa SSE 4.7 km/h 5.1 km/h 80 % 0.0 mm open2300-1.11 W/m2
11:10 25.8 °C 20.1 °C 1010.5 hPa ESE 10.3 km/h 16.3 km/h 71 % 0.0 mm open2300-1.11 W/m2
12:10 27.2 °C 20.3 °C 1010.2 hPa Calm   11.6 km/h 66 % 0.0 mm open2300-1.11 W/m2
13:10 27.4 °C 20.2 °C 1010.4 hPa SSE 2.3 km/h 10.3 km/h 65 % 0.0 mm open2300-1.11 W/m2
14:10 27.6 °C 20.4 °C 1010.6 hPa Calm   12.7 km/h 65 % 0.0 mm open2300-1.11 W/m2
15:10 27.2 °C 20.0 °C 1010.3 hPa SW 5.1 km/h 8.9 km/h 65 % 0.0 mm open2300-1.11 W/m2
16:10 26.8 °C 19.9 °C 1010.3 hPa SW 9.8 km/h 9.8 km/h 66 % 0.0 mm open2300-1.11 W/m2
17:10 26.4 °C 19.8 °C 1010.4 hPa South 5.6 km/h 15.6 km/h 67 % 0.0 mm open2300-1.11 W/m2
18:10 25.6 °C 19.3 °C 1010.4 hPa Calm   8.9 km/h 68 % 0.0 mm open2300-1.11 W/m2
19:10 24.9 °C 18.8 °C 1010.3 hPa Calm     69 % 0.0 mm open2300-1.11 W/m2
20:10 24.2 °C 18.8 °C 1010.2 hPa SW 4.7 km/h 4.7 km/h 72 % 0.0 mm open2300-1.11 W/m2
21:10 23.1 °C 18.2 °C 1010.3 hPa Calm     74 % 0.0 mm open2300-1.11 W/m2
22:10 21.9 °C 17.4 °C 1010.5 hPa Calm   2.3 km/h 76 % 0.0 mm open2300-1.11 W/m2
23:10 20.9 °C 17.0 °C 1011.3 hPa Calm   2.9 km/h 78 % 0.0 mm open2300-1.11 W/m2
Observations météo à CASSIS
WU-History script by Weather Underground - 1 mb